sensor_id;sensor_type;location;lat;lon;timestamp;P1;durP1;ratioP1;P2;durP2;ratioP2
47167;SDS011;32931;47.778;17.806;2024-03-08T00:02:25;17.55;;;11.85;;
47167;SDS011;32931;47.778;17.806;2024-03-08T00:04:51;17.95;;;12.40;;
47167;SDS011;32931;47.778;17.806;2024-03-08T00:07:17;16.35;;;11.65;;
47167;SDS011;32931;47.778;17.806;2024-03-08T00:09:43;15.80;;;11.63;;
47167;SDS011;32931;47.778;17.806;2024-03-08T00:12:09;16.27;;;11.23;;
47167;SDS011;32931;47.778;17.806;2024-03-08T00:14:35;16.30;;;11.98;;
47167;SDS011;32931;47.778;17.806;2024-03-08T00:17:03;18.33;;;12.70;;
47167;SDS011;32931;47.778;17.806;2024-03-08T00:19:29;17.30;;;12.45;;
47167;SDS011;32931;47.778;17.806;2024-03-08T00:21:56;16.33;;;12.30;;
47167;SDS011;32931;47.778;17.806;2024-03-08T00:24:22;17.73;;;12.55;;
47167;SDS011;32931;47.778;17.806;2024-03-08T00:26:50;17.17;;;12.50;;
47167;SDS011;32931;47.778;17.806;2024-03-08T00:29:16;16.73;;;12.00;;
47167;SDS011;32931;47.778;17.806;2024-03-08T00:31:43;18.23;;;12.88;;
47167;SDS011;32931;47.778;17.806;2024-03-08T00:34:09;19.05;;;13.15;;
47167;SDS011;32931;47.778;17.806;2024-03-08T00:36:37;19.30;;;13.20;;
47167;SDS011;32931;47.778;17.806;2024-03-08T00:39:03;18.48;;;13.38;;
47167;SDS011;32931;47.778;17.806;2024-03-08T00:41:32;18.00;;;12.90;;
47167;SDS011;32931;47.778;17.806;2024-03-08T00:43:58;17.38;;;13.07;;
47167;SDS011;32931;47.778;17.806;2024-03-08T00:46:24;17.77;;;13.60;;
47167;SDS011;32931;47.778;17.806;2024-03-08T00:48:51;18.70;;;13.20;;
47167;SDS011;32931;47.778;17.806;2024-03-08T00:51:17;17.20;;;12.98;;
47167;SDS011;32931;47.778;17.806;2024-03-08T00:53:43;20.40;;;13.93;;
47167;SDS011;32931;47.778;17.806;2024-03-08T00:56:09;18.67;;;12.90;;
47167;SDS011;32931;47.778;17.806;2024-03-08T00:58:36;19.63;;;13.30;;
47167;SDS011;32931;47.778;17.806;2024-03-08T01:01:02;18.27;;;12.93;;
47167;SDS011;32931;47.778;17.806;2024-03-08T01:03:33;18.42;;;13.23;;
47167;SDS011;32931;47.778;17.806;2024-03-08T01:06:00;18.48;;;13.00;;
47167;SDS011;32931;47.778;17.806;2024-03-08T01:08:30;19.63;;;13.57;;
47167;SDS011;32931;47.778;17.806;2024-03-08T01:10:56;15.60;;;12.20;;
47167;SDS011;32931;47.778;17.806;2024-03-08T01:13:22;17.52;;;13.20;;
47167;SDS011;32931;47.778;17.806;2024-03-08T01:15:48;17.88;;;13.25;;
47167;SDS011;32931;47.778;17.806;2024-03-08T01:18:14;17.23;;;12.13;;
47167;SDS011;32931;47.778;17.806;2024-03-08T01:20:40;18.02;;;12.88;;
47167;SDS011;32931;47.778;17.806;2024-03-08T01:23:06;18.88;;;12.50;;
47167;SDS011;32931;47.778;17.806;2024-03-08T01:25:35;18.83;;;13.30;;
47167;SDS011;32931;47.778;17.806;2024-03-08T01:28:02;17.70;;;12.75;;
47167;SDS011;32931;47.778;17.806;2024-03-08T01:30:28;15.10;;;12.48;;
47167;SDS011;32931;47.778;17.806;2024-03-08T01:32:54;14.77;;;11.35;;
47167;SDS011;32931;47.778;17.806;2024-03-08T01:35:20;17.23;;;11.95;;
47167;SDS011;32931;47.778;17.806;2024-03-08T01:37:47;17.08;;;11.55;;
47167;SDS011;32931;47.778;17.806;2024-03-08T01:40:15;17.38;;;12.65;;
47167;SDS011;32931;47.778;17.806;2024-03-08T01:42:42;16.75;;;12.32;;
47167;SDS011;32931;47.778;17.806;2024-03-08T01:45:08;15.48;;;12.13;;
47167;SDS011;32931;47.778;17.806;2024-03-08T01:47:34;17.20;;;12.20;;
47167;SDS011;32931;47.778;17.806;2024-03-08T01:50:01;17.50;;;13.32;;
47167;SDS011;32931;47.778;17.806;2024-03-08T01:52:32;18.50;;;13.10;;
47167;SDS011;32931;47.778;17.806;2024-03-08T01:55:03;17.63;;;13.15;;
47167;SDS011;32931;47.778;17.806;2024-03-08T01:57:32;18.23;;;12.80;;
47167;SDS011;32931;47.778;17.806;2024-03-08T02:00:03;18.42;;;13.07;;
47167;SDS011;32931;47.778;17.806;2024-03-08T02:02:33;17.70;;;13.15;;
47167;SDS011;32931;47.778;17.806;2024-03-08T02:05:00;18.60;;;14.10;;
47167;SDS011;32931;47.778;17.806;2024-03-08T02:07:26;17.13;;;12.90;;
47167;SDS011;32931;47.778;17.806;2024-03-08T02:09:52;18.77;;;13.23;;
47167;SDS011;32931;47.778;17.806;2024-03-08T02:12:19;20.13;;;13.20;;
47167;SDS011;32931;47.778;17.806;2024-03-08T02:14:48;16.98;;;13.07;;
47167;SDS011;32931;47.778;17.806;2024-03-08T02:17:14;19.73;;;14.05;;
47167;SDS011;32931;47.778;17.806;2024-03-08T02:19:40;19.85;;;13.90;;
47167;SDS011;32931;47.778;17.806;2024-03-08T02:22:07;18.48;;;14.00;;
47167;SDS011;32931;47.778;17.806;2024-03-08T02:24:33;19.15;;;14.15;;
47167;SDS011;32931;47.778;17.806;2024-03-08T02:26:59;20.13;;;13.90;;
47167;SDS011;32931;47.778;17.806;2024-03-08T02:29:25;18.65;;;13.68;;
47167;SDS011;32931;47.778;17.806;2024-03-08T02:31:51;17.95;;;13.20;;
47167;SDS011;32931;47.778;17.806;2024-03-08T02:34:18;17.70;;;13.55;;
47167;SDS011;32931;47.778;17.806;2024-03-08T02:36:44;19.98;;;14.00;;
47167;SDS011;32931;47.778;17.806;2024-03-08T02:39:10;18.80;;;13.98;;
47167;SDS011;32931;47.778;17.806;2024-03-08T02:41:36;19.30;;;14.50;;
47167;SDS011;32931;47.778;17.806;2024-03-08T02:44:02;18.95;;;14.23;;
47167;SDS011;32931;47.778;17.806;2024-03-08T02:46:29;21.80;;;14.70;;
47167;SDS011;32931;47.778;17.806;2024-03-08T02:48:56;18.60;;;13.38;;
47167;SDS011;32931;47.778;17.806;2024-03-08T02:51:22;19.85;;;14.48;;
47167;SDS011;32931;47.778;17.806;2024-03-08T02:53:48;19.13;;;14.25;;
47167;SDS011;32931;47.778;17.806;2024-03-08T02:56:14;19.80;;;14.05;;
47167;SDS011;32931;47.778;17.806;2024-03-08T02:58:42;19.73;;;14.88;;
47167;SDS011;32931;47.778;17.806;2024-03-08T03:01:09;20.25;;;14.02;;
47167;SDS011;32931;47.778;17.806;2024-03-08T03:03:36;19.35;;;14.95;;
47167;SDS011;32931;47.778;17.806;2024-03-08T03:06:02;17.92;;;13.20;;
47167;SDS011;32931;47.778;17.806;2024-03-08T03:08:28;18.67;;;13.82;;
47167;SDS011;32931;47.778;17.806;2024-03-08T03:10:54;20.80;;;14.05;;
47167;SDS011;32931;47.778;17.806;2024-03-08T03:13:22;17.73;;;13.60;;
47167;SDS011;32931;47.778;17.806;2024-03-08T03:15:48;17.23;;;13.13;;
47167;SDS011;32931;47.778;17.806;2024-03-08T03:18:15;17.73;;;13.40;;
47167;SDS011;32931;47.778;17.806;2024-03-08T03:20:41;21.70;;;14.07;;
47167;SDS011;32931;47.778;17.806;2024-03-08T03:23:08;17.02;;;12.75;;
47167;SDS011;32931;47.778;17.806;2024-03-08T03:25:35;19.92;;;14.00;;
47167;SDS011;32931;47.778;17.806;2024-03-08T03:28:01;19.40;;;14.40;;
47167;SDS011;32931;47.778;17.806;2024-03-08T03:30:28;18.63;;;14.05;;
47167;SDS011;32931;47.778;17.806;2024-03-08T03:33:01;19.52;;;14.35;;
47167;SDS011;32931;47.778;17.806;2024-03-08T03:35:32;19.10;;;14.10;;
47167;SDS011;32931;47.778;17.806;2024-03-08T03:37:58;18.67;;;13.75;;
47167;SDS011;32931;47.778;17.806;2024-03-08T03:40:34;17.90;;;14.02;;
47167;SDS011;32931;47.778;17.806;2024-03-08T03:43:00;17.83;;;14.23;;
47167;SDS011;32931;47.778;17.806;2024-03-08T03:45:28;18.08;;;13.40;;
47167;SDS011;32931;47.778;17.806;2024-03-08T03:47:54;19.02;;;14.52;;
47167;SDS011;32931;47.778;17.806;2024-03-08T03:50:21;21.10;;;14.88;;
47167;SDS011;32931;47.778;17.806;2024-03-08T03:52:50;18.33;;;13.82;;
47167;SDS011;32931;47.778;17.806;2024-03-08T03:55:16;22.08;;;14.48;;
47167;SDS011;32931;47.778;17.806;2024-03-08T03:57:42;23.02;;;15.55;;
47167;SDS011;32931;47.778;17.806;2024-03-08T04:00:11;23.40;;;14.93;;
47167;SDS011;32931;47.778;17.806;2024-03-08T04:02:38;19.63;;;14.60;;
47167;SDS011;32931;47.778;17.806;2024-03-08T04:05:05;21.20;;;15.10;;
47167;SDS011;32931;47.778;17.806;2024-03-08T04:07:32;22.33;;;15.25;;
47167;SDS011;32931;47.778;17.806;2024-03-08T04:09:58;19.70;;;14.90;;
47167;SDS011;32931;47.778;17.806;2024-03-08T04:12:24;22.60;;;15.55;;
47167;SDS011;32931;47.778;17.806;2024-03-08T04:14:50;21.00;;;15.68;;
47167;SDS011;32931;47.778;17.806;2024-03-08T04:17:16;21.98;;;15.55;;
47167;SDS011;32931;47.778;17.806;2024-03-08T04:19:44;26.63;;;16.00;;
47167;SDS011;32931;47.778;17.806;2024-03-08T04:22:10;22.60;;;15.73;;
47167;SDS011;32931;47.778;17.806;2024-03-08T04:24:36;23.17;;;16.02;;
47167;SDS011;32931;47.778;17.806;2024-03-08T04:27:02;21.55;;;15.30;;
47167;SDS011;32931;47.778;17.806;2024-03-08T04:29:30;19.98;;;14.95;;
47167;SDS011;32931;47.778;17.806;2024-03-08T04:31:58;19.63;;;15.43;;
47167;SDS011;32931;47.778;17.806;2024-03-08T04:34:24;20.58;;;15.25;;
47167;SDS011;32931;47.778;17.806;2024-03-08T04:36:50;21.48;;;15.38;;
47167;SDS011;32931;47.778;17.806;2024-03-08T04:39:16;19.70;;;15.27;;
47167;SDS011;32931;47.778;17.806;2024-03-08T04:41:44;21.63;;;15.43;;
47167;SDS011;32931;47.778;17.806;2024-03-08T04:44:11;22.33;;;15.65;;
47167;SDS011;32931;47.778;17.806;2024-03-08T04:46:38;28.30;;;16.55;;
47167;SDS011;32931;47.778;17.806;2024-03-08T04:49:04;22.33;;;16.15;;
47167;SDS011;32931;47.778;17.806;2024-03-08T04:51:30;21.45;;;16.10;;
47167;SDS011;32931;47.778;17.806;2024-03-08T04:53:56;24.20;;;16.90;;
47167;SDS011;32931;47.778;17.806;2024-03-08T04:56:22;23.67;;;17.00;;
47167;SDS011;32931;47.778;17.806;2024-03-08T04:58:48;24.00;;;17.58;;
47167;SDS011;32931;47.778;17.806;2024-03-08T05:01:15;27.67;;;19.15;;
47167;SDS011;32931;47.778;17.806;2024-03-08T05:03:41;26.73;;;19.33;;
47167;SDS011;32931;47.778;17.806;2024-03-08T05:06:07;28.20;;;19.60;;
47167;SDS011;32931;47.778;17.806;2024-03-08T05:08:34;32.30;;;19.65;;
47167;SDS011;32931;47.778;17.806;2024-03-08T05:11:00;27.23;;;19.52;;
47167;SDS011;32931;47.778;17.806;2024-03-08T05:13:30;25.58;;;19.08;;
47167;SDS011;32931;47.778;17.806;2024-03-08T05:15:56;28.15;;;19.92;;
47167;SDS011;32931;47.778;17.806;2024-03-08T05:18:25;27.77;;;20.00;;
47167;SDS011;32931;47.778;17.806;2024-03-08T05:20:54;31.20;;;20.58;;
47167;SDS011;32931;47.778;17.806;2024-03-08T05:23:20;33.72;;;21.75;;
47167;SDS011;32931;47.778;17.806;2024-03-08T05:25:47;30.10;;;20.10;;
47167;SDS011;32931;47.778;17.806;2024-03-08T05:28:14;32.25;;;21.90;;
47167;SDS011;32931;47.778;17.806;2024-03-08T05:30:40;33.70;;;21.88;;
47167;SDS011;32931;47.778;17.806;2024-03-08T05:33:06;38.03;;;22.48;;
47167;SDS011;32931;47.778;17.806;2024-03-08T05:35:36;46.63;;;23.45;;
47167;SDS011;32931;47.778;17.806;2024-03-08T05:38:02;41.00;;;23.50;;
47167;SDS011;32931;47.778;17.806;2024-03-08T05:40:28;43.58;;;23.30;;
47167;SDS011;32931;47.778;17.806;2024-03-08T05:42:58;36.33;;;23.25;;
47167;SDS011;32931;47.778;17.806;2024-03-08T05:45:27;36.58;;;24.23;;
47167;SDS011;32931;47.778;17.806;2024-03-08T05:47:53;36.45;;;24.48;;
47167;SDS011;32931;47.778;17.806;2024-03-08T05:50:19;41.78;;;24.55;;
47167;SDS011;32931;47.778;17.806;2024-03-08T05:52:45;37.17;;;23.75;;
47167;SDS011;32931;47.778;17.806;2024-03-08T05:55:13;39.95;;;25.38;;
47167;SDS011;32931;47.778;17.806;2024-03-08T05:57:40;39.60;;;24.73;;
47167;SDS011;32931;47.778;17.806;2024-03-08T06:00:08;37.05;;;23.63;;
47167;SDS011;32931;47.778;17.806;2024-03-08T06:02:38;43.50;;;26.00;;
47167;SDS011;32931;47.778;17.806;2024-03-08T06:05:12;41.28;;;23.85;;
47167;SDS011;32931;47.778;17.806;2024-03-08T06:07:38;37.17;;;23.95;;
47167;SDS011;32931;47.778;17.806;2024-03-08T06:10:08;36.63;;;23.55;;
47167;SDS011;32931;47.778;17.806;2024-03-08T06:12:36;41.50;;;24.83;;
47167;SDS011;32931;47.778;17.806;2024-03-08T06:15:07;39.33;;;24.63;;
47167;SDS011;32931;47.778;17.806;2024-03-08T06:17:40;36.47;;;23.90;;
47167;SDS011;32931;47.778;17.806;2024-03-08T06:20:07;37.03;;;24.27;;
47167;SDS011;32931;47.778;17.806;2024-03-08T06:22:37;52.25;;;31.55;;
47167;SDS011;32931;47.778;17.806;2024-03-08T06:25:06;44.45;;;27.52;;
47167;SDS011;32931;47.778;17.806;2024-03-08T06:27:33;44.72;;;24.45;;
47167;SDS011;32931;47.778;17.806;2024-03-08T06:30:00;45.67;;;25.35;;
47167;SDS011;32931;47.778;17.806;2024-03-08T06:32:26;42.38;;;25.35;;
47167;SDS011;32931;47.778;17.806;2024-03-08T06:34:52;45.90;;;26.98;;
47167;SDS011;32931;47.778;17.806;2024-03-08T06:37:18;46.88;;;26.08;;
47167;SDS011;32931;47.778;17.806;2024-03-08T06:39:50;45.05;;;26.00;;
47167;SDS011;32931;47.778;17.806;2024-03-08T06:42:17;40.65;;;25.63;;
47167;SDS011;32931;47.778;17.806;2024-03-08T06:44:43;46.47;;;26.17;;
47167;SDS011;32931;47.778;17.806;2024-03-08T06:47:15;40.17;;;25.73;;
47167;SDS011;32931;47.778;17.806;2024-03-08T06:49:42;50.28;;;25.92;;
47167;SDS011;32931;47.778;17.806;2024-03-08T06:52:12;46.10;;;25.95;;
47167;SDS011;32931;47.778;17.806;2024-03-08T06:54:38;41.13;;;25.20;;
47167;SDS011;32931;47.778;17.806;2024-03-08T06:57:04;42.90;;;26.25;;
47167;SDS011;32931;47.778;17.806;2024-03-08T06:59:33;46.90;;;26.55;;
47167;SDS011;32931;47.778;17.806;2024-03-08T07:02:04;43.83;;;26.77;;
47167;SDS011;32931;47.778;17.806;2024-03-08T07:04:30;45.80;;;26.50;;
47167;SDS011;32931;47.778;17.806;2024-03-08T07:06:59;53.75;;;26.58;;
47167;SDS011;32931;47.778;17.806;2024-03-08T07:09:25;42.38;;;24.48;;
47167;SDS011;32931;47.778;17.806;2024-03-08T07:11:52;41.17;;;25.02;;
47167;SDS011;32931;47.778;17.806;2024-03-08T07:14:23;43.55;;;26.80;;
47167;SDS011;32931;47.778;17.806;2024-03-08T07:16:50;40.30;;;25.50;;
47167;SDS011;32931;47.778;17.806;2024-03-08T07:19:16;43.13;;;25.00;;
47167;SDS011;32931;47.778;17.806;2024-03-08T07:21:43;42.13;;;24.42;;
47167;SDS011;32931;47.778;17.806;2024-03-08T07:24:13;38.65;;;25.02;;
47167;SDS011;32931;47.778;17.806;2024-03-08T07:26:43;41.40;;;25.13;;
47167;SDS011;32931;47.778;17.806;2024-03-08T07:29:09;41.88;;;23.90;;
47167;SDS011;32931;47.778;17.806;2024-03-08T07:31:35;47.80;;;25.67;;
47167;SDS011;32931;47.778;17.806;2024-03-08T07:34:07;36.17;;;23.70;;
47167;SDS011;32931;47.778;17.806;2024-03-08T07:36:34;38.17;;;24.13;;
47167;SDS011;32931;47.778;17.806;2024-03-08T07:39:03;40.42;;;24.25;;
47167;SDS011;32931;47.778;17.806;2024-03-08T07:41:37;37.42;;;22.98;;
47167;SDS011;32931;47.778;17.806;2024-03-08T07:44:08;36.92;;;23.50;;
47167;SDS011;32931;47.778;17.806;2024-03-08T07:46:34;43.67;;;24.88;;
47167;SDS011;32931;47.778;17.806;2024-03-08T07:49:00;42.65;;;24.55;;
47167;SDS011;32931;47.778;17.806;2024-03-08T07:51:26;45.72;;;24.20;;
47167;SDS011;32931;47.778;17.806;2024-03-08T07:53:52;34.80;;;22.85;;
47167;SDS011;32931;47.778;17.806;2024-03-08T07:56:19;33.03;;;21.90;;
47167;SDS011;32931;47.778;17.806;2024-03-08T07:58:47;37.30;;;22.92;;
47167;SDS011;32931;47.778;17.806;2024-03-08T08:01:17;33.17;;;22.10;;
47167;SDS011;32931;47.778;17.806;2024-03-08T08:03:44;34.63;;;20.48;;
47167;SDS011;32931;47.778;17.806;2024-03-08T08:06:11;31.50;;;20.35;;
47167;SDS011;32931;47.778;17.806;2024-03-08T08:08:41;35.58;;;20.67;;
47167;SDS011;32931;47.778;17.806;2024-03-08T08:11:08;34.45;;;21.58;;
47167;SDS011;32931;47.778;17.806;2024-03-08T08:13:34;33.55;;;21.40;;
47167;SDS011;32931;47.778;17.806;2024-03-08T08:16:02;34.50;;;19.50;;
47167;SDS011;32931;47.778;17.806;2024-03-08T08:18:29;27.60;;;20.08;;
47167;SDS011;32931;47.778;17.806;2024-03-08T08:20:55;30.52;;;21.02;;
47167;SDS011;32931;47.778;17.806;2024-03-08T08:23:21;33.05;;;20.77;;
47167;SDS011;32931;47.778;17.806;2024-03-08T08:25:47;29.45;;;20.02;;
47167;SDS011;32931;47.778;17.806;2024-03-08T08:28:18;31.77;;;21.17;;
47167;SDS011;32931;47.778;17.806;2024-03-08T08:30:44;34.22;;;21.10;;
47167;SDS011;32931;47.778;17.806;2024-03-08T08:33:10;33.15;;;20.30;;
47167;SDS011;32931;47.778;17.806;2024-03-08T08:35:37;33.42;;;19.42;;
47167;SDS011;32931;47.778;17.806;2024-03-08T08:38:06;27.80;;;19.58;;
47167;SDS011;32931;47.778;17.806;2024-03-08T08:40:35;34.63;;;20.45;;
47167;SDS011;32931;47.778;17.806;2024-03-08T08:43:02;31.55;;;19.63;;
47167;SDS011;32931;47.778;17.806;2024-03-08T08:45:32;29.73;;;19.85;;
47167;SDS011;32931;47.778;17.806;2024-03-08T08:47:59;28.55;;;19.67;;
47167;SDS011;32931;47.778;17.806;2024-03-08T08:50:25;29.50;;;18.83;;
47167;SDS011;32931;47.778;17.806;2024-03-08T08:52:52;28.58;;;18.67;;
47167;SDS011;32931;47.778;17.806;2024-03-08T08:55:18;27.63;;;18.70;;
47167;SDS011;32931;47.778;17.806;2024-03-08T08:57:47;31.35;;;19.75;;
47167;SDS011;32931;47.778;17.806;2024-03-08T09:00:13;30.27;;;18.45;;
47167;SDS011;32931;47.778;17.806;2024-03-08T09:02:42;32.63;;;18.63;;
47167;SDS011;32931;47.778;17.806;2024-03-08T09:05:08;33.58;;;18.63;;
47167;SDS011;32931;47.778;17.806;2024-03-08T09:07:34;29.90;;;18.70;;
47167;SDS011;32931;47.778;17.806;2024-03-08T09:10:00;28.05;;;18.08;;
47167;SDS011;32931;47.778;17.806;2024-03-08T09:12:27;28.73;;;19.73;;
47167;SDS011;32931;47.778;17.806;2024-03-08T09:14:54;27.85;;;19.35;;
47167;SDS011;32931;47.778;17.806;2024-03-08T09:17:20;30.00;;;19.42;;
47167;SDS011;32931;47.778;17.806;2024-03-08T09:19:46;28.35;;;19.08;;
47167;SDS011;32931;47.778;17.806;2024-03-08T09:22:15;26.00;;;18.25;;
47167;SDS011;32931;47.778;17.806;2024-03-08T09:24:41;27.00;;;18.92;;
47167;SDS011;32931;47.778;17.806;2024-03-08T09:27:08;33.67;;;19.75;;
47167;SDS011;32931;47.778;17.806;2024-03-08T09:29:35;28.70;;;19.73;;
47167;SDS011;32931;47.778;17.806;2024-03-08T09:32:01;27.67;;;18.98;;
47167;SDS011;32931;47.778;17.806;2024-03-08T09:34:28;28.77;;;19.45;;
47167;SDS011;32931;47.778;17.806;2024-03-08T09:36:55;28.85;;;19.13;;
47167;SDS011;32931;47.778;17.806;2024-03-08T09:39:22;26.23;;;18.52;;
47167;SDS011;32931;47.778;17.806;2024-03-08T09:41:48;29.88;;;19.85;;
47167;SDS011;32931;47.778;17.806;2024-03-08T09:44:15;31.60;;;20.45;;
47167;SDS011;32931;47.778;17.806;2024-03-08T09:46:42;30.27;;;19.98;;
47167;SDS011;32931;47.778;17.806;2024-03-08T09:49:08;26.90;;;17.98;;
47167;SDS011;32931;47.778;17.806;2024-03-08T09:51:37;27.38;;;18.27;;
47167;SDS011;32931;47.778;17.806;2024-03-08T09:54:06;27.50;;;18.80;;
47167;SDS011;32931;47.778;17.806;2024-03-08T09:56:32;27.92;;;18.30;;
47167;SDS011;32931;47.778;17.806;2024-03-08T09:58:59;28.65;;;17.73;;
47167;SDS011;32931;47.778;17.806;2024-03-08T10:01:31;28.25;;;18.05;;
47167;SDS011;32931;47.778;17.806;2024-03-08T10:03:57;25.50;;;17.70;;
47167;SDS011;32931;47.778;17.806;2024-03-08T10:06:24;33.20;;;17.80;;
47167;SDS011;32931;47.778;17.806;2024-03-08T10:08:50;25.73;;;18.10;;
47167;SDS011;32931;47.778;17.806;2024-03-08T10:11:19;28.02;;;18.77;;
47167;SDS011;32931;47.778;17.806;2024-03-08T10:13:46;26.15;;;18.17;;
47167;SDS011;32931;47.778;17.806;2024-03-08T10:16:13;29.35;;;18.58;;
47167;SDS011;32931;47.778;17.806;2024-03-08T10:18:39;30.95;;;18.17;;
47167;SDS011;32931;47.778;17.806;2024-03-08T10:21:07;33.63;;;18.02;;
47167;SDS011;32931;47.778;17.806;2024-03-08T10:23:35;23.60;;;15.98;;
47167;SDS011;32931;47.778;17.806;2024-03-08T10:26:12;28.95;;;17.17;;
47167;SDS011;32931;47.778;17.806;2024-03-08T10:28:40;23.13;;;16.35;;
47167;SDS011;32931;47.778;17.806;2024-03-08T10:31:08;27.70;;;16.42;;
47167;SDS011;32931;47.778;17.806;2024-03-08T10:33:35;22.55;;;16.30;;
47167;SDS011;32931;47.778;17.806;2024-03-08T10:36:03;25.48;;;16.13;;
47167;SDS011;32931;47.778;17.806;2024-03-08T10:38:33;24.00;;;15.75;;
47167;SDS011;32931;47.778;17.806;2024-03-08T10:41:05;22.63;;;15.67;;
47167;SDS011;32931;47.778;17.806;2024-03-08T10:43:35;42.72;;;17.13;;
47167;SDS011;32931;47.778;17.806;2024-03-08T10:46:31;25.52;;;15.93;;
47167;SDS011;32931;47.778;17.806;2024-03-08T10:49:16;23.65;;;16.48;;
47167;SDS011;32931;47.778;17.806;2024-03-08T10:51:43;23.63;;;16.05;;
47167;SDS011;32931;47.778;17.806;2024-03-08T10:54:11;27.52;;;16.40;;
47167;SDS011;32931;47.778;17.806;2024-03-08T10:56:41;26.60;;;16.55;;
47167;SDS011;32931;47.778;17.806;2024-03-08T10:59:08;22.00;;;15.57;;
47167;SDS011;32931;47.778;17.806;2024-03-08T11:01:34;25.50;;;16.40;;
47167;SDS011;32931;47.778;17.806;2024-03-08T11:04:03;26.60;;;15.98;;
47167;SDS011;32931;47.778;17.806;2024-03-08T11:09:02;27.48;;;16.40;;
47167;SDS011;32931;47.778;17.806;2024-03-08T11:11:30;25.33;;;16.20;;
47167;SDS011;32931;47.778;17.806;2024-03-08T11:13:58;25.45;;;17.10;;
47167;SDS011;32931;47.778;17.806;2024-03-08T11:18:53;25.92;;;16.73;;
47167;SDS011;32931;47.778;17.806;2024-03-08T11:21:20;23.92;;;16.45;;
47167;SDS011;32931;47.778;17.806;2024-03-08T11:24:00;26.88;;;17.05;;
47167;SDS011;32931;47.778;17.806;2024-03-08T11:26:27;26.73;;;17.25;;
47167;SDS011;32931;47.778;17.806;2024-03-08T11:29:42;26.25;;;16.40;;
47167;SDS011;32931;47.778;17.806;2024-03-08T11:32:06;23.02;;;16.15;;
47167;SDS011;32931;47.778;17.806;2024-03-08T11:34:32;26.00;;;16.38;;
47167;SDS011;32931;47.778;17.806;2024-03-08T11:36:59;42.10;;;19.55;;
47167;SDS011;32931;47.778;17.806;2024-03-08T11:39:25;24.48;;;15.90;;
47167;SDS011;32931;47.778;17.806;2024-03-08T11:41:54;50.53;;;17.52;;
47167;SDS011;32931;47.778;17.806;2024-03-08T11:44:21;32.08;;;17.77;;
47167;SDS011;32931;47.778;17.806;2024-03-08T11:46:47;28.15;;;17.23;;
47167;SDS011;32931;47.778;17.806;2024-03-08T11:49:14;31.48;;;18.05;;
47167;SDS011;32931;47.778;17.806;2024-03-08T11:51:40;29.48;;;18.02;;
47167;SDS011;32931;47.778;17.806;2024-03-08T11:54:10;27.10;;;17.35;;
47167;SDS011;32931;47.778;17.806;2024-03-08T11:56:41;30.08;;;17.98;;
47167;SDS011;32931;47.778;17.806;2024-03-08T11:59:10;27.52;;;17.25;;
47167;SDS011;32931;47.778;17.806;2024-03-08T12:01:40;25.77;;;17.20;;
47167;SDS011;32931;47.778;17.806;2024-03-08T12:04:10;29.48;;;17.88;;
47167;SDS011;32931;47.778;17.806;2024-03-08T12:06:38;39.90;;;18.48;;
47167;SDS011;32931;47.778;17.806;2024-03-08T12:09:08;30.15;;;17.67;;
47167;SDS011;32931;47.778;17.806;2024-03-08T12:11:38;28.30;;;18.02;;
47167;SDS011;32931;47.778;17.806;2024-03-08T12:14:04;26.45;;;17.52;;
47167;SDS011;32931;47.778;17.806;2024-03-08T12:16:32;29.55;;;17.73;;
47167;SDS011;32931;47.778;17.806;2024-03-08T12:18:59;28.83;;;18.05;;
47167;SDS011;32931;47.778;17.806;2024-03-08T12:21:26;28.23;;;17.40;;
47167;SDS011;32931;47.778;17.806;2024-03-08T12:26:37;27.83;;;17.40;;
47167;SDS011;32931;47.778;17.806;2024-03-08T12:31:50;27.63;;;18.27;;
47167;SDS011;32931;47.778;17.806;2024-03-08T12:34:19;26.33;;;18.02;;
47167;SDS011;32931;47.778;17.806;2024-03-08T12:36:45;29.35;;;18.60;;
47167;SDS011;32931;47.778;17.806;2024-03-08T12:39:17;32.90;;;19.60;;
47167;SDS011;32931;47.778;17.806;2024-03-08T12:41:53;32.47;;;19.92;;
47167;SDS011;32931;47.778;17.806;2024-03-08T12:44:20;28.13;;;18.63;;
47167;SDS011;32931;47.778;17.806;2024-03-08T12:46:50;28.02;;;18.45;;
47167;SDS011;32931;47.778;17.806;2024-03-08T12:49:17;29.02;;;18.92;;
47167;SDS011;32931;47.778;17.806;2024-03-08T12:51:43;30.58;;;18.58;;
47167;SDS011;32931;47.778;17.806;2024-03-08T12:54:12;29.27;;;19.05;;
47167;SDS011;32931;47.778;17.806;2024-03-08T12:56:38;33.47;;;20.33;;
47167;SDS011;32931;47.778;17.806;2024-03-08T12:59:06;29.58;;;19.35;;
47167;SDS011;32931;47.778;17.806;2024-03-08T13:01:36;31.25;;;19.88;;
47167;SDS011;32931;47.778;17.806;2024-03-08T13:04:05;35.08;;;20.10;;
47167;SDS011;32931;47.778;17.806;2024-03-08T13:06:36;32.38;;;20.75;;
47167;SDS011;32931;47.778;17.806;2024-03-08T13:09:02;31.45;;;19.20;;
47167;SDS011;32931;47.778;17.806;2024-03-08T13:11:32;34.17;;;20.30;;
47167;SDS011;32931;47.778;17.806;2024-03-08T13:14:04;32.40;;;21.02;;
47167;SDS011;32931;47.778;17.806;2024-03-08T13:16:31;35.38;;;20.60;;
47167;SDS011;32931;47.778;17.806;2024-03-08T13:18:57;35.25;;;21.52;;
47167;SDS011;32931;47.778;17.806;2024-03-08T13:21:23;29.48;;;20.45;;
47167;SDS011;32931;47.778;17.806;2024-03-08T13:23:50;30.92;;;20.13;;
47167;SDS011;32931;47.778;17.806;2024-03-08T13:26:18;47.80;;;22.25;;
47167;SDS011;32931;47.778;17.806;2024-03-08T13:28:48;36.00;;;21.08;;
47167;SDS011;32931;47.778;17.806;2024-03-08T13:31:19;32.85;;;21.05;;
47167;SDS011;32931;47.778;17.806;2024-03-08T13:33:46;34.25;;;21.55;;
47167;SDS011;32931;47.778;17.806;2024-03-08T13:36:13;34.90;;;21.00;;
47167;SDS011;32931;47.778;17.806;2024-03-08T13:38:42;35.35;;;20.33;;
47167;SDS011;32931;47.778;17.806;2024-03-08T13:41:10;34.88;;;21.33;;
47167;SDS011;32931;47.778;17.806;2024-03-08T13:43:37;34.00;;;20.15;;
47167;SDS011;32931;47.778;17.806;2024-03-08T13:46:05;32.67;;;21.13;;
47167;SDS011;32931;47.778;17.806;2024-03-08T13:48:33;37.97;;;21.90;;
47167;SDS011;32931;47.778;17.806;2024-03-08T13:50:59;31.30;;;20.02;;
47167;SDS011;32931;47.778;17.806;2024-03-08T13:53:26;35.15;;;21.30;;
47167;SDS011;32931;47.778;17.806;2024-03-08T13:55:52;34.65;;;21.80;;
47167;SDS011;32931;47.778;17.806;2024-03-08T13:58:18;34.10;;;20.40;;
47167;SDS011;32931;47.778;17.806;2024-03-08T14:00:46;32.03;;;21.08;;
47167;SDS011;32931;47.778;17.806;2024-03-08T14:03:13;33.33;;;22.02;;
47167;SDS011;32931;47.778;17.806;2024-03-08T14:05:39;33.20;;;20.90;;
47167;SDS011;32931;47.778;17.806;2024-03-08T14:08:07;35.72;;;21.83;;
47167;SDS011;32931;47.778;17.806;2024-03-08T14:10:34;39.53;;;22.50;;
47167;SDS011;32931;47.778;17.806;2024-03-08T14:13:02;41.33;;;22.42;;
47167;SDS011;32931;47.778;17.806;2024-03-08T14:15:31;33.72;;;20.92;;
47167;SDS011;32931;47.778;17.806;2024-03-08T14:17:57;42.10;;;23.13;;
47167;SDS011;32931;47.778;17.806;2024-03-08T14:20:23;38.15;;;22.33;;
47167;SDS011;32931;47.778;17.806;2024-03-08T14:22:51;37.75;;;22.38;;